Time;durP1;ratioP1;P1;durP2;ratioP2;P2;SDS_P1;SDS_P2;PMS_P1;PMS_P2;Temp;Humidity;BMP_temperature;BMP_pressure;BME280_temperature;BME280_humidity;BME280_pressure;Samples;Min_cycle;Max_cycle;Signal;HPM_P1;HPM_P2
2021/06/22 00:00:18;;;;;;;1.80;0.80;;;;;;;13.12;94.67;100618.44;125371;1093;64337;-80
2021/06/22 00:02:46;;;;;;;2.00;1.00;;;;;;;13.11;95.00;100610.64;125375;1093;64307;-80
2021/06/22 00:05:16;;;;;;;1.70;1.10;;;;;;;13.09;95.10;100610.86;125491;1092;64326;-79
2021/06/22 00:07:45;;;;;;;4.37;1.07;;;;;;;13.09;95.19;100612.67;125309;1093;64233;-79
2021/06/22 00:10:13;;;;;;;2.83;1.00;;;;;;;13.07;95.84;100623.54;125468;1093;64326;-80
2021/06/22 00:12:40;;;;;;;3.03;1.30;;;;;;;13.02;96.40;100617.95;126300;1092;64131;-80
2021/06/22 00:15:11;;;;;;;4.90;1.43;;;;;;;13.00;96.57;100612.80;126213;1093;63049;-80
2021/06/22 00:17:39;;;;;;;2.63;1.60;;;;;;;12.97;96.46;100605.22;126065;1093;64671;-81
2021/06/22 00:20:09;;;;;;;3.23;1.53;;;;;;;12.98;96.47;100608.70;126353;1091;64315;-81
2021/06/22 00:22:38;;;;;;;3.60;1.60;;;;;;;12.95;96.88;100612.58;125847;1093;64176;-82
2021/06/22 00:25:08;;;;;;;3.53;1.57;;;;;;;12.95;96.99;100617.08;125649;1093;64396;-80
2021/06/22 00:27:36;;;;;;;2.00;1.03;;;;;;;12.97;96.94;100620.38;125337;1093;64298;-81
2021/06/22 00:30:05;;;;;;;2.83;1.37;;;;;;;12.93;96.54;100627.91;125490;1093;64285;-80
2021/06/22 00:32:33;;;;;;;2.33;1.00;;;;;;;12.92;96.20;100628.95;125381;1092;64346;-80
2021/06/22 00:35:00;;;;;;;3.97;1.63;;;;;;;12.89;95.25;100631.16;125673;1093;65512;-81
2021/06/22 00:37:27;;;;;;;5.00;2.03;;;;;;;12.86;94.42;100621.72;126461;1093;64265;-82
2021/06/22 00:39:54;;;;;;;2.90;1.57;;;;;;;12.81;93.60;100621.45;126135;1093;62724;-82
2021/06/22 00:42:21;;;;;;;3.53;1.80;;;;;;;12.78;93.34;100616.53;126144;1093;64288;-81
2021/06/22 00:44:52;;;;;;;4.33;1.97;;;;;;;12.72;93.63;100609.30;125725;1093;64320;-80
2021/06/22 00:47:21;;;;;;;5.43;2.00;;;;;;;12.71;93.28;100618.29;125635;1092;64237;-79
2021/06/22 00:49:49;;;;;;;5.23;2.10;;;;;;;12.64;93.48;100615.56;125965;1092;64282;-80
2021/06/22 00:52:21;;;;;;;6.10;2.33;;;;;;;12.61;93.72;100624.77;125975;1092;64304;-81
2021/06/22 00:54:49;;;;;;;4.20;2.05;;;;;;;12.55;93.95;100614.88;126079;1093;64294;-80
2021/06/22 00:57:18;;;;;;;5.70;2.53;;;;;;;12.52;94.27;100617.11;125863;1093;64281;-81
2021/06/22 00:59:46;;;;;;;4.63;2.57;;;;;;;12.48;94.03;100621.16;126005;1091;63038;-81
2021/06/22 01:02:13;;;;;;;8.80;2.70;;;;;;;12.46;94.49;100626.66;125893;1092;64399;-80
2021/06/22 01:04:41;;;;;;;10.23;3.43;;;;;;;12.43;94.17;100641.17;125958;1093;64272;-82
2021/06/22 01:07:15;;;;;;;5.13;2.53;;;;;;;12.40;94.48;100635.39;125621;1093;64317;-80
2021/06/22 01:09:42;;;;;;;3.80;2.03;;;;;;;12.38;94.84;100638.23;125768;1093;64293;-81
2021/06/22 01:12:10;;;;;;;4.40;2.30;;;;;;;12.38;95.08;100648.06;125437;1092;64173;-81
2021/06/22 01:14:42;;;;;;;9.47;2.50;;;;;;;12.38;94.89;100642.73;125557;1093;64362;-80
2021/06/22 01:17:09;;;;;;;7.87;3.07;;;;;;;12.35;95.19;100637.81;125493;1092;64374;-80
2021/06/22 01:19:37;;;;;;;4.40;2.27;;;;;;;12.34;95.98;100636.14;125451;1093;64352;-80
2021/06/22 01:22:05;;;;;;;5.53;2.23;;;;;;;12.30;96.59;100641.00;125647;1092;64176;-80
2021/06/22 01:24:33;;;;;;;7.40;2.83;;;;;;;12.29;96.88;100650.02;125362;1093;64304;-79
2021/06/22 01:27:01;;;;;;;6.17;3.30;;;;;;;12.29;96.48;100654.52;125293;1093;64457;-80
2021/06/22 01:29:29;;;;;;;7.93;3.13;;;;;;;12.27;96.56;100651.22;125363;1091;64310;-80
2021/06/22 01:31:59;;;;;;;8.90;3.87;;;;;;;12.29;96.66;100665.16;126170;1093;64281;-80
2021/06/22 01:34:29;;;;;;;11.10;3.70;;;;;;;12.29;96.35;100649.20;125865;1093;64291;-81
2021/06/22 01:36:58;;;;;;;6.47;2.53;;;;;;;12.29;95.86;100649.20;126068;1093;64224;-80
2021/06/22 01:39:25;;;;;;;9.23;2.90;;;;;;;12.30;95.65;100661.47;125321;1092;64309;-80
2021/06/22 01:41:52;;;;;;;7.63;3.27;;;;;;;12.31;95.94;100663.13;125309;1093;64217;-80
2021/06/22 01:44:19;;;;;;;6.60;2.63;;;;;;;12.31;95.10;100663.13;125245;1092;64678;-80
2021/06/22 01:46:46;;;;;;;7.40;3.33;;;;;;;12.33;95.27;100661.11;125283;1093;64301;-82
2021/06/22 01:49:14;;;;;;;5.90;2.73;;;;;;;12.33;95.12;100671.75;125389;1093;64285;-80
2021/06/22 01:51:41;;;;;;;6.45;2.70;;;;;;;12.36;94.82;100663.38;125199;1093;64353;-80
2021/06/22 01:54:08;;;;;;;6.90;2.90;;;;;;;12.37;94.92;100670.37;125366;1093;64355;-80
2021/06/22 01:56:36;;;;;;;8.97;3.43;;;;;;;12.37;94.46;100662.39;125244;1093;64281;-78
2021/06/22 01:59:04;;;;;;;10.87;3.83;;;;;;;12.38;94.48;100658.70;125264;1093;64290;-78
2021/06/22 02:01:31;;;;;;;11.73;3.87;;;;;;;12.39;94.94;100655.05;125483;1092;64289;-78
2021/06/22 02:03:58;;;;;;;6.57;3.90;;;;;;;12.39;94.76;100657.70;125211;1093;64382;-78
2021/06/22 02:06:25;;;;;;;8.40;3.20;;;;;;;12.39;94.69;100655.05;125114;1093;64323;-80
2021/06/22 02:08:52;;;;;;;8.55;3.50;;;;;;;12.38;94.63;100648.06;125444;1092;64311;-79
2021/06/22 02:11:19;;;;;;;8.97;2.90;;;;;;;12.39;94.85;100652.38;125251;1093;64300;-79
2021/06/22 02:13:48;;;;;;;8.05;3.10;;;;;;;12.38;94.68;100670.16;125242;1092;64285;-78
2021/06/22 02:16:17;;;;;;;8.30;4.95;;;;;;;12.39;94.69;100676.33;125116;1093;64286;-79
2021/06/22 02:18:45;;;;;;;6.33;2.90;;;;;;;12.39;94.56;100686.97;125386;1093;64289;-79
2021/06/22 02:21:12;;;;;;;4.00;2.40;;;;;;;12.35;93.87;100686.51;125798;1093;64304;-80
2021/06/22 02:23:41;;;;;;;7.07;2.97;;;;;;;12.34;93.96;100705.30;127903;1093;62713;-79
2021/06/22 02:26:08;;;;;;;6.03;3.27;;;;;;;12.34;94.18;100716.77;127959;1093;63298;-80
2021/06/22 02:28:35;;;;;;;10.03;2.70;;;;;;;12.38;93.73;100730.53;127548;1092;64179;-80
2021/06/22 02:31:03;;;;;;;10.37;2.97;;;;;;;12.38;93.58;100718.04;127164;1093;64284;-80
2021/06/22 02:33:30;;;;;;;5.10;2.80;;;;;;;12.41;93.80;100708.86;125896;1093;64313;-81
2021/06/22 02:35:57;;;;;;;7.67;2.83;;;;;;;12.42;93.68;100723.83;125424;1093;64307;-81
2021/06/22 02:38:24;;;;;;;9.37;2.83;;;;;;;12.43;93.29;100725.45;125244;1093;64252;-79
2021/06/22 02:40:51;;;;;;;7.73;3.73;;;;;;;12.45;93.79;100731.42;125086;1093;64300;-79
2021/06/22 02:43:18;;;;;;;13.63;2.70;;;;;;;12.47;93.52;100725.92;125392;1091;64307;-79
2021/06/22 02:45:46;;;;;;;7.87;2.93;;;;;;;12.47;93.62;100726.73;125326;1093;64303;-79
2021/06/22 02:48:14;;;;;;;9.97;2.73;;;;;;;12.49;93.71;100727.38;125224;1093;64311;-79
2021/06/22 02:50:41;;;;;;;3.85;2.30;;;;;;;12.48;93.29;100728.41;125225;1093;64289;-79
2021/06/22 02:53:10;;;;;;;5.43;2.17;;;;;;;12.45;93.53;100712.80;125265;1092;64292;-80
2021/06/22 02:55:38;;;;;;;6.87;2.97;;;;;;;12.38;93.80;100699.42;125337;1093;64311;-79
2021/06/22 02:58:05;;;;;;;10.47;3.00;;;;;;;12.38;94.05;100687.96;125526;1093;64264;-80
2021/06/22 03:00:33;;;;;;;7.53;3.20;;;;;;;12.36;94.15;100682.82;125185;1093;64358;-80
2021/06/22 03:03:00;;;;;;;3.70;2.20;;;;;;;12.34;94.46;100674.20;125290;1093;64310;-81
2021/06/22 03:05:27;;;;;;;6.63;2.70;;;;;;;12.32;94.53;100681.55;125288;1093;64269;-81
2021/06/22 03:07:55;;;;;;;3.67;2.30;;;;;;;12.32;94.49;100686.86;126016;1093;64671;-81
2021/06/22 03:10:25;;;;;;;7.13;2.47;;;;;;;12.32;94.48;100689.52;125162;1093;64268;-82
2021/06/22 03:12:53;;;;;;;11.30;3.43;;;;;;;12.34;94.30;100699.98;125444;1092;64290;-82
2021/06/22 03:15:20;;;;;;;5.97;2.63;;;;;;;12.35;94.55;100701.65;126604;1093;64211;-81
2021/06/22 03:17:50;;;;;;;6.97;3.40;;;;;;;12.36;94.32;100709.42;125993;1093;64400;-81
2021/06/22 03:20:18;;;;;;;8.53;2.47;;;;;;;12.38;94.76;100706.58;125027;1093;64357;-81
2021/06/22 03:22:46;;;;;;;6.43;3.03;;;;;;;12.40;94.64;100709.88;125177;1093;64261;-81
2021/06/22 03:25:13;;;;;;;8.37;2.63;;;;;;;12.40;94.50;100710.70;125285;1092;64383;-83
2021/06/22 03:27:40;;;;;;;8.53;3.47;;;;;;;12.40;94.19;100715.20;125814;1093;64350;-82
2021/06/22 03:30:10;;;;;;;8.67;3.60;;;;;;;12.41;94.51;100704.39;125786;1093;64248;-83
2021/06/22 03:32:38;;;;;;;6.00;3.05;;;;;;;12.41;94.53;100708.86;125313;1093;64310;-82
2021/06/22 03:35:07;;;;;;;7.77;2.90;;;;;;;12.40;94.73;100712.55;125283;1092;64300;-82
2021/06/22 03:37:35;;;;;;;5.73;2.77;;;;;;;12.41;94.59;100716.84;125149;1092;64297;-81
2021/06/22 03:40:05;;;;;;;13.47;2.93;;;;;;;12.43;94.33;100709.50;125091;1092;64192;-85
2021/06/22 03:42:35;;;;;;;7.47;3.37;;;;;;;12.44;94.17;100713.83;124976;1092;64377;-85
2021/06/22 03:45:05;;;;;;;11.27;3.43;;;;;;;12.45;94.25;100712.80;125163;1093;64301;-83
2021/06/22 03:47:33;;;;;;;14.90;4.03;;;;;;;12.48;94.26;100723.08;125200;1093;64290;-81
2021/06/22 03:50:01;;;;;;;6.50;2.97;;;;;;;12.50;93.81;100723.72;125367;1093;64313;-81
2021/06/22 03:52:28;;;;;;;9.73;3.27;;;;;;;12.53;93.80;100731.31;125114;1092;64278;-82
2021/06/22 03:54:55;;;;;;;11.73;4.00;;;;;;;12.55;93.68;100733.80;125255;1092;64402;-82
2021/06/22 03:57:23;;;;;;;10.70;2.93;;;;;;;12.58;93.63;100736.92;125743;1093;64264;-81
2021/06/22 03:59:51;;;;;;;12.63;2.83;;;;;;;12.62;93.32;100746.19;125464;1093;64300;-81
2021/06/22 04:02:19;;;;;;;8.70;3.20;;;;;;;12.65;93.38;100736.99;125526;1093;64294;-82
2021/06/22 04:04:46;;;;;;;7.13;2.90;;;;;;;12.65;93.04;100748.45;125800;1093;64967;-81
2021/06/22 04:07:13;;;;;;;4.67;2.60;;;;;;;12.66;93.07;100757.26;125583;1093;64393;-82
2021/06/22 04:09:40;;;;;;;7.27;2.43;;;;;;;12.68;93.04;100757.90;126263;1093;64191;-81
2021/06/22 04:12:08;;;;;;;8.50;2.97;;;;;;;12.70;92.70;100765.70;126300;1091;64117;-81
2021/06/22 04:14:35;;;;;;;5.77;2.40;;;;;;;12.73;92.32;100766.16;125389;1093;64390;-80
2021/06/22 04:17:02;;;;;;;7.33;3.70;;;;;;;12.78;92.46;100770.92;125204;1092;64205;-80
2021/06/22 04:19:29;;;;;;;8.97;4.30;;;;;;;12.81;92.46;100759.88;125250;1092;64377;-80
2021/06/22 04:21:56;;;;;;;8.33;2.27;;;;;;;12.87;92.16;100758.31;125893;1092;64404;-81
2021/06/22 04:24:23;;;;;;;11.43;3.50;;;;;;;12.90;91.80;100766.77;125670;1093;64317;-80
2021/06/22 04:26:51;;;;;;;4.70;2.57;;;;;;;12.94;91.84;100765.38;124933;1093;64259;-79
2021/06/22 04:29:18;;;;;;;6.10;2.53;;;;;;;13.00;91.90;100761.93;124888;1093;64184;-79
2021/06/22 04:31:45;;;;;;;7.83;2.60;;;;;;;13.04;91.61;100765.86;125298;1092;64438;-79
2021/06/22 04:34:12;;;;;;;9.57;3.43;;;;;;;13.09;91.45;100775.13;125325;1092;64390;-79
2021/06/22 04:36:39;;;;;;;10.50;2.77;;;;;;;13.11;91.08;100770.44;125470;1093;64288;-78
2021/06/22 04:39:06;;;;;;;12.07;2.70;;;;;;;13.10;90.53;100768.80;125378;1093;64201;-80
2021/06/22 04:41:33;;;;;;;11.10;3.03;;;;;;;13.05;90.36;100772.86;124911;1093;64301;-78
2021/06/22 04:44:00;;;;;;;14.40;2.87;;;;;;;13.00;90.45;100771.77;124975;1093;64378;-79
2021/06/22 04:46:28;;;;;;;5.27;2.20;;;;;;;12.99;90.58;100775.45;125327;1092;64301;-79
2021/06/22 04:48:55;;;;;;;6.97;2.10;;;;;;;12.99;90.92;100784.26;125342;1093;64893;-78
2021/06/22 04:51:22;;;;;;;4.27;1.50;;;;;;;13.00;90.42;100791.22;125236;1092;64786;-78
2021/06/22 04:53:50;;;;;;;5.97;1.93;;;;;;;13.00;90.58;100796.55;125181;1093;64304;-79
2021/06/22 04:56:21;;;;;;;8.67;2.93;;;;;;;13.03;90.71;100784.72;125759;1093;64303;-81
2021/06/22 04:58:50;;;;;;;5.13;2.20;;;;;;;13.09;90.70;100791.11;125947;1093;62996;-81
2021/06/22 05:01:18;;;;;;;5.20;1.93;;;;;;;13.10;89.83;100790.11;125149;1093;64668;-75
2021/06/22 05:03:45;;;;;;;7.10;2.00;;;;;;;13.06;89.57;100785.14;124886;1093;64284;-72
2021/06/22 05:06:12;;;;;;;4.23;1.83;;;;;;;13.11;89.37;100783.75;124599;1092;64288;-72
2021/06/22 05:08:40;;;;;;;10.23;2.87;;;;;;;13.13;89.55;100779.06;124629;1092;64317;-72
2021/06/22 05:11:07;;;;;;;9.40;2.63;;;;;;;13.17;89.78;100788.33;124824;1093;64558;-72
2021/06/22 05:13:35;;;;;;;4.50;1.80;;;;;;;13.19;89.69;100779.13;124909;1092;64262;-72
2021/06/22 05:16:02;;;;;;;6.55;2.40;;;;;;;13.21;89.26;100781.61;124885;1092;64282;-72
2021/06/22 05:18:30;;;;;;;10.93;2.80;;;;;;;13.22;89.27;100785.94;124712;1092;64352;-72
2021/06/22 05:20:57;;;;;;;7.50;1.57;;;;;;;13.23;88.77;100795.56;124634;1093;64464;-72
2021/06/22 05:23:24;;;;;;;5.80;2.40;;;;;;;13.23;88.75;100800.89;124696;1093;64457;-73
2021/06/22 05:25:51;;;;;;;9.83;2.40;;;;;;;13.25;89.13;100794.35;124634;1093;64310;-72
2021/06/22 05:28:18;;;;;;;8.37;3.10;;;;;;;13.27;89.21;100796.83;124828;1093;64297;-72
2021/06/22 05:30:45;;;;;;;9.57;2.90;;;;;;;13.30;89.17;100796.47;125015;1093;64271;-72
2021/06/22 05:33:12;;;;;;;10.10;3.13;;;;;;;13.36;89.39;100806.38;124816;1093;64300;-72
2021/06/22 05:35:40;;;;;;;8.73;2.80;;;;;;;13.46;88.91;100801.55;124854;1093;64289;-70
2021/06/22 05:38:07;;;;;;;12.60;3.15;;;;;;;13.55;88.10;100809.42;124842;1092;64665;-72
2021/06/22 05:40:34;;;;;;;8.53;2.60;;;;;;;13.68;88.22;100800.71;124872;1093;64288;-71
2021/06/22 05:43:01;;;;;;;4.70;2.33;;;;;;;13.80;87.97;100802.66;124856;1093;64282;-71
2021/06/22 05:45:28;;;;;;;8.53;2.67;;;;;;;13.90;87.04;100806.81;124573;1092;64291;-72
2021/06/22 05:47:55;;;;;;;4.60;1.85;;;;;;;13.96;85.96;100804.22;124801;1093;64288;-72
2021/06/22 05:50:22;;;;;;;7.60;2.17;;;;;;;14.05;86.49;100794.23;124801;1093;64300;-72
2021/06/22 05:52:50;;;;;;;6.70;2.30;;;;;;;14.13;85.92;100796.75;124820;1093;64377;-73
2021/06/22 05:55:17;;;;;;;8.53;2.27;;;;;;;14.23;85.73;100780.36;124848;1093;64233;-70
2021/06/22 05:57:50;;;;;;;6.40;1.80;;;;;;;14.34;85.54;100770.98;124825;1093;64566;-72
2021/06/22 06:00:20;;;;;;;4.93;1.63;;;;;;;14.45;84.83;100763.25;124971;1093;64323;-72
2021/06/22 06:02:49;;;;;;;3.40;1.80;;;;;;;14.48;83.52;100767.36;125239;1091;64358;-72
2021/06/22 06:05:22;;;;;;;7.93;2.50;;;;;;;14.52;84.75;100773.13;125548;1093;64176;-72
2021/06/22 06:07:50;;;;;;;8.23;2.90;;;;;;;14.51;83.70;100788.30;126220;1093;64307;-72
2021/06/22 06:10:19;;;;;;;5.80;2.60;;;;;;;14.56;82.96;100798.44;124942;1093;64287;-72
2021/06/22 06:12:47;;;;;;;6.00;2.23;;;;;;;14.61;83.31;100804.81;127752;1092;64265;-72
2021/06/22 06:15:15;;;;;;;6.57;1.97;;;;;;;14.66;83.44;100814.89;125194;1093;64259;-73
2021/06/22 06:17:43;;;;;;;6.83;1.63;;;;;;;14.61;81.67;100815.48;124806;1092;64298;-73
2021/06/22 06:20:12;;;;;;;9.87;2.60;;;;;;;14.59;81.05;100824.72;124830;1092;64293;-73
2021/06/22 06:22:41;;;;;;;5.87;2.23;;;;;;;14.60;82.37;100821.02;127385;1093;64345;-71
2021/06/22 06:25:11;;;;;;;8.67;2.60;;;;;;;14.71;82.58;100825.00;124914;1093;64258;-72
2021/06/22 06:27:49;;;;;;;10.30;2.10;;;;;;;14.84;81.91;100825.05;124891;1093;64230;-73
2021/06/22 06:30:20;;;;;;;10.00;1.60;;;;;;;14.92;80.69;100826.70;124855;1093;64234;-72
2021/06/22 06:32:49;;;;;;;7.57;1.80;;;;;;;15.01;81.39;100838.88;124901;1093;64233;-72
2021/06/22 06:35:17;;;;;;;7.77;1.73;;;;;;;15.15;81.25;100832.55;124870;1092;64357;-72
2021/06/22 06:37:45;;;;;;;4.67;1.77;;;;;;;15.31;81.39;100836.68;125118;1093;64295;-72
2021/06/22 06:40:14;;;;;;;6.23;1.97;;;;;;;15.44;79.15;100836.70;124850;1093;64297;-72
2021/06/22 06:42:42;;;;;;;4.67;1.90;;;;;;;15.55;79.11;100826.43;124770;1093;64378;-72
2021/06/22 06:45:16;;;;;;;6.00;2.33;;;;;;;15.70;78.78;100819.03;124980;1093;64323;-72
2021/06/22 06:47:44;;;;;;;4.27;2.17;;;;;;;15.83;78.96;100823.58;124866;1093;64399;-73
2021/06/22 06:50:11;;;;;;;6.10;2.27;;;;;;;15.98;77.89;100820.69;124690;1093;64364;-72
2021/06/22 06:52:39;;;;;;;3.90;1.85;;;;;;;16.11;77.84;100831.40;124911;1093;64307;-72
2021/06/22 06:55:25;;;;;;;5.90;2.23;;;;;;;16.29;76.72;100831.55;124850;1093;64311;-72
2021/06/22 06:57:55;;;;;;;7.93;2.20;;;;;;;16.42;74.74;100825.34;124879;1092;64300;-73
2021/06/22 07:00:24;;;;;;;4.53;1.43;;;;;;;16.54;71.68;100833.56;124841;1093;64315;-72
2021/06/22 07:02:52;;;;;;;16.43;2.00;;;;;;;16.66;73.13;100834.55;124767;1093;64204;-73
2021/06/22 07:05:19;;;;;;;5.60;1.65;;;;;;;16.75;71.55;100842.36;124817;1093;64214;-74
2021/06/22 07:07:47;;;;;;;6.20;2.07;;;;;;;16.80;71.71;100842.53;124899;1093;64377;-72
2021/06/22 07:10:15;;;;;;;7.80;1.70;;;;;;;16.83;70.81;100824.22;124884;1093;64305;-72
2021/06/22 07:12:43;;;;;;;6.23;1.30;;;;;;;16.93;70.67;100825.61;124904;1093;64438;-73
2021/06/22 07:15:11;;;;;;;3.40;1.70;;;;;;;17.05;70.37;100822.03;124913;1092;64284;-73
2021/06/22 07:17:39;;;;;;;3.60;1.25;;;;;;;17.16;69.25;100833.12;124822;1093;64285;-72
2021/06/22 07:20:08;;;;;;;3.27;1.23;;;;;;;17.26;68.15;100836.16;124846;1093;64307;-72
2021/06/22 07:22:35;;;;;;;5.27;1.80;;;;;;;17.29;68.52;100839.20;124700;1093;64932;-73
2021/06/22 07:25:04;;;;;;;5.50;1.60;;;;;;;17.27;66.77;100833.23;124816;1093;64336;-72
2021/06/22 07:27:31;;;;;;;6.50;1.70;;;;;;;17.21;67.08;100836.77;124703;1092;64319;-73
2021/06/22 07:29:59;;;;;;;3.50;1.50;;;;;;;17.22;67.75;100841.12;124647;1093;65464;-72
2021/06/22 07:32:26;;;;;;;4.63;1.60;;;;;;;17.26;67.01;100838.84;124828;1093;64282;-73
2021/06/22 07:34:53;;;;;;;4.93;1.90;;;;;;;17.33;67.70;100842.29;124616;1093;64358;-73
2021/06/22 07:37:20;;;;;;;4.77;1.90;;;;;;;17.37;67.72;100840.82;124849;1093;64300;-73
2021/06/22 07:39:47;;;;;;;4.83;1.63;;;;;;;17.49;67.97;100843.64;124856;1093;64288;-73
2021/06/22 07:42:15;;;;;;;8.63;2.17;;;;;;;17.58;65.65;100847.70;124681;1093;64275;-72
2021/06/22 07:44:42;;;;;;;5.10;1.67;;;;;;;17.62;66.65;100850.77;124862;1093;64205;-72
2021/06/22 07:47:09;;;;;;;5.50;1.70;;;;;;;17.65;65.25;100847.64;124676;1092;64794;-72
2021/06/22 07:49:37;;;;;;;5.10;1.80;;;;;;;17.70;64.87;100842.43;124803;1093;64393;-72
2021/06/22 07:52:06;;;;;;;5.90;1.73;;;;;;;17.76;64.44;100844.24;124852;1093;65059;-73
2021/06/22 07:54:33;;;;;;;3.80;1.60;;;;;;;17.81;63.77;100836.38;124671;1093;64291;-75
2021/06/22 07:57:00;;;;;;;3.85;1.30;;;;;;;17.88;63.83;100839.03;124803;1093;64277;-73
2021/06/22 07:59:27;;;;;;;5.97;1.80;;;;;;;17.94;63.31;100835.47;124842;1093;64284;-73
2021/06/22 08:01:55;;;;;;;4.23;2.37;;;;;;;18.01;63.40;100840.77;124788;1093;64419;-72
2021/06/22 08:04:22;;;;;;;4.23;1.40;;;;;;;18.03;62.88;100834.14;124836;1093;64287;-73
2021/06/22 08:06:52;;;;;;;5.47;1.67;;;;;;;18.08;62.49;100844.20;124652;1093;64851;-73
2021/06/22 08:09:20;;;;;;;4.30;1.70;;;;;;;18.17;62.95;100840.22;124846;1092;64307;-73
2021/06/22 08:11:48;;;;;;;9.33;1.90;;;;;;;18.29;62.90;100843.78;124801;1093;64211;-73
2021/06/22 08:14:15;;;;;;;8.13;1.87;;;;;;;18.42;63.37;100836.64;124696;1092;64394;-73
2021/06/22 08:16:42;;;;;;;4.70;2.10;;;;;;;18.44;63.13;100845.30;124690;1093;64466;-73
2021/06/22 08:19:10;;;;;;;4.27;1.87;;;;;;;18.39;62.61;100843.28;124771;1093;64976;-72
2021/06/22 08:21:39;;;;;;;8.33;1.77;;;;;;;18.18;61.64;100836.47;124845;1093;64307;-72
2021/06/22 08:24:06;;;;;;;5.93;1.87;;;;;;;17.93;61.95;100845.36;124811;1092;65186;-72
2021/06/22 08:26:33;;;;;;;5.35;1.80;;;;;;;17.73;62.97;100847.38;124850;1093;64365;-72
2021/06/22 08:29:01;;;;;;;4.50;2.07;;;;;;;17.56;62.54;100852.45;124689;1093;64246;-72
2021/06/22 08:31:28;;;;;;;4.80;1.60;;;;;;;17.33;62.88;100858.38;125077;1092;64298;-72
2021/06/22 08:33:56;;;;;;;2.53;1.50;;;;;;;17.15;64.30;100869.83;124773;1093;64381;-72
2021/06/22 08:36:23;;;;;;;6.40;2.03;;;;;;;16.94;65.37;100862.07;124868;1093;64284;-73
2021/06/22 08:38:50;;;;;;;3.93;1.50;;;;;;;16.82;65.73;100869.97;124817;1093;64358;-73
2021/06/22 08:41:20;;;;;;;5.27;1.60;;;;;;;16.71;66.47;100864.20;124669;1093;64354;-72
2021/06/22 08:43:50;;;;;;;3.63;1.60;;;;;;;16.68;66.35;100861.11;124868;1093;64208;-74
2021/06/22 08:46:18;;;;;;;4.80;1.75;;;;;;;16.62;66.66;100857.44;124732;1092;64268;-73
2021/06/22 08:48:45;;;;;;;7.75;1.90;;;;;;;16.62;67.22;100854.76;125022;1092;64317;-73
2021/06/22 08:51:33;;;;;;;8.33;2.30;;;;;;;16.64;67.90;100857.20;124888;1093;64310;-72
2021/06/22 08:54:03;;;;;;;4.83;1.60;;;;;;;16.62;67.46;100860.12;124583;1093;64381;-73
2021/06/22 08:56:30;;;;;;;6.37;1.67;;;;;;;16.53;67.20;100864.03;124832;1093;64288;-72
2021/06/22 08:58:57;;;;;;;3.73;1.30;;;;;;;16.44;67.62;100857.27;124805;1093;64285;-74
2021/06/22 09:01:25;;;;;;;4.30;1.43;;;;;;;16.35;67.36;100864.70;124826;1093;64300;-71
2021/06/22 09:03:52;;;;;;;6.43;1.80;;;;;;;16.33;67.71;100882.02;125071;1093;64304;-72
2021/06/22 09:06:24;;;;;;;4.60;1.80;;;;;;;16.33;67.60;100876.66;124570;1092;64307;-72
2021/06/22 09:08:53;;;;;;;5.27;2.30;;;;;;;16.36;67.29;100871.69;125083;1092;64307;-72
2021/06/22 09:11:21;;;;;;;6.20;1.57;;;;;;;16.41;67.18;100873.77;124562;1093;64349;-72
2021/06/22 09:14:00;;;;;;;5.80;1.47;;;;;;;16.50;66.84;100869.83;124818;1093;64259;-73
2021/06/22 09:16:28;;;;;;;3.45;1.60;;;;;;;16.61;67.47;100876.39;124622;1093;64301;-73
2021/06/22 09:19:07;;;;;;;3.73;1.40;;;;;;;16.75;66.66;100874.50;124906;1093;64284;-73
2021/06/22 09:21:43;;;;;;;4.17;1.57;;;;;;;16.91;67.00;100874.86;124796;1093;64394;-74
2021/06/22 09:24:19;;;;;;;3.73;1.50;;;;;;;17.14;66.39;100875.39;124666;1093;64368;-73
2021/06/22 09:26:48;;;;;;;3.70;1.20;;;;;;;17.32;65.58;100883.56;124549;1092;64672;-74
2021/06/22 09:29:21;;;;;;;7.43;1.90;;;;;;;17.46;65.02;100879.73;124861;1092;64405;-72
2021/06/22 09:31:49;;;;;;;3.53;1.70;;;;;;;17.61;64.21;100881.30;124829;1093;64311;-73
2021/06/22 09:34:18;;;;;;;5.85;1.75;;;;;;;17.79;63.98;100869.84;124777;1093;64310;-72
2021/06/22 09:36:57;;;;;;;5.70;1.20;;;;;;;18.01;64.19;100872.98;125189;1093;65476;-73
2021/06/22 09:39:27;;;;;;;6.33;1.77;;;;;;;18.20;62.95;100876.53;124854;1093;64261;-73
2021/06/22 09:41:56;;;;;;;3.07;1.67;;;;;;;18.41;63.18;100867.24;124887;1093;64438;-72
2021/06/22 09:44:26;;;;;;;8.27;2.00;;;;;;;18.53;60.95;100866.28;124792;1093;64351;-73
2021/06/22 09:47:01;;;;;;;3.83;1.50;;;;;;;18.62;60.56;100874.05;124817;1093;64281;-72
2021/06/22 09:49:31;;;;;;;5.97;1.70;;;;;;;18.62;60.48;100879.42;124870;1092;64307;-72
2021/06/22 09:52:14;;;;;;;5.25;1.80;;;;;;;18.45;59.78;100873.81;124655;1093;64317;-73
2021/06/22 09:54:42;;;;;;;8.03;1.67;;;;;;;18.28;59.53;100889.69;124908;1092;64284;-72
2021/06/22 09:57:14;;;;;;;7.77;1.23;;;;;;;18.07;58.79;100888.22;124813;1092;64326;-72
2021/06/22 10:00:08;;;;;;;7.25;1.80;;;;;;;17.88;59.90;100893.52;124730;1092;64315;-73
2021/06/22 10:02:55;;;;;;;4.33;1.47;;;;;;;17.67;60.49;100901.91;124890;1093;64320;-72
2021/06/22 10:05:22;;;;;;;7.23;2.13;;;;;;;17.50;61.19;100904.28;124836;1093;64311;-72
2021/06/22 10:08:00;;;;;;;6.70;2.23;;;;;;;17.39;61.87;100900.42;124902;1092;65201;-72
2021/06/22 10:10:40;;;;;;;3.87;1.30;;;;;;;17.29;62.20;100910.78;124821;1093;64282;-72
2021/06/22 10:13:08;;;;;;;6.83;2.23;;;;;;;17.25;62.48;100909.56;124863;1093;64265;-73
2021/06/22 10:15:36;;;;;;;8.20;2.00;;;;;;;17.22;62.33;100905.45;124852;1093;64320;-73
2021/06/22 10:18:03;;;;;;;6.97;1.70;;;;;;;17.24;62.07;100910.61;124863;1093;64334;-72
2021/06/22 10:20:30;;;;;;;5.03;1.37;;;;;;;17.30;62.07;100912.45;124845;1093;64978;-72
2021/06/22 10:22:58;;;;;;;5.80;1.60;;;;;;;17.35;61.94;100909.93;124855;1093;64957;-72
2021/06/22 10:25:26;;;;;;;4.37;1.50;;;;;;;17.43;61.66;100920.41;124809;1093;64286;-74
2021/06/22 10:27:55;;;;;;;4.67;1.50;;;;;;;17.50;60.80;100917.69;124889;1093;64282;-73
2021/06/22 10:30:23;;;;;;;4.23;1.50;;;;;;;17.58;60.34;100905.89;124738;1093;64394;-73
2021/06/22 10:32:50;;;;;;;3.45;1.45;;;;;;;17.72;61.03;100908.27;124778;1093;64419;-73
2021/06/22 10:35:19;;;;;;;5.23;1.33;;;;;;;17.95;60.15;100911.44;124891;1093;64310;-73
2021/06/22 10:37:55;;;;;;;5.13;1.20;;;;;;;18.16;59.56;100897.63;124865;1093;64380;-72
2021/06/22 10:40:25;;;;;;;4.70;1.30;;;;;;;18.48;59.66;100903.72;124875;1093;64220;-74
2021/06/22 10:42:53;;;;;;;10.40;1.83;;;;;;;18.75;58.14;100901.58;124904;1093;64294;-72
2021/06/22 10:46:07;;;;;;;5.03;1.33;;;;;;;18.92;57.62;100904.52;124818;1093;64230;-72
2021/06/22 10:48:47;;;;;;;6.53;1.83;;;;;;;19.00;55.59;100903.40;125313;1092;64976;-73
2021/06/22 10:51:31;;;;;;;3.33;1.10;;;;;;;19.26;55.43;100907.61;124866;1093;64243;-72
2021/06/22 10:53:59;;;;;;;3.87;1.03;;;;;;;19.58;53.63;100909.25;124607;1093;64240;-72
2021/06/22 10:56:28;;;;;;;4.13;1.20;;;;;;;19.93;54.68;100904.80;124818;1093;64349;-72
2021/06/22 10:59:11;;;;;;;4.20;1.37;;;;;;;20.29;52.50;100902.93;124717;1093;64440;-72
2021/06/22 11:01:53;;;;;;;8.63;1.70;;;;;;;20.59;53.76;100899.31;124879;1092;64284;-73
2021/06/22 11:04:22;;;;;;;5.50;1.70;;;;;;;20.65;52.91;100903.76;124865;1093;64651;-74
2021/06/22 11:07:08;;;;;;;3.00;1.20;;;;;;;20.57;52.87;100912.17;124738;1093;64320;-73
2021/06/22 11:09:36;;;;;;;5.67;1.60;;;;;;;20.45;53.13;100904.11;124822;1093;64173;-73
2021/06/22 11:12:18;;;;;;;6.60;1.67;;;;;;;20.33;53.46;100912.19;124683;1093;64464;-74
2021/06/22 11:15:00;;;;;;;7.33;2.27;;;;;;;20.36;53.48;100902.84;124715;1093;64320;-73
2021/06/22 11:17:43;;;;;;;4.00;1.70;;;;;;;20.34;51.14;100904.95;124811;1093;64298;-72
2021/06/22 11:20:14;;;;;;;5.87;1.30;;;;;;;20.21;51.15;100908.70;124864;1093;64760;-73
2021/06/22 11:23:01;;;;;;;5.77;1.37;;;;;;;20.11;51.45;100903.06;124957;1093;64285;-72
2021/06/22 11:25:48;;;;;;;4.47;1.10;;;;;;;20.14;53.43;100906.09;125885;1093;64432;-73